createdAt,value
2019-03-12T00:00:05.774Z,3.2
2019-03-12T00:05:05.689Z,3.2
2019-03-12T00:10:08.209Z,3.1
2019-03-12T00:15:08.217Z,3.2
2019-03-12T00:20:08.383Z,3.2
2019-03-12T00:25:03.217Z,3.2
2019-03-12T00:30:10.779Z,3.1
2019-03-12T00:35:08.239Z,3.1
2019-03-12T00:40:02.710Z,3
2019-03-12T00:45:07.779Z,3
2019-03-12T00:50:15.415Z,3
2019-03-12T00:55:07.844Z,3
2019-03-12T01:00:02.811Z,3
2019-03-12T01:05:02.755Z,3
2019-03-12T01:10:03.239Z,3
2019-03-12T01:15:03.236Z,3
2019-03-12T01:20:18.445Z,3
2019-03-12T01:25:03.328Z,3
2019-03-12T01:30:05.865Z,3.1
2019-03-12T01:35:04.912Z,3.1
2019-03-12T01:45:07.634Z,3.1
2019-03-12T01:50:02.573Z,3.1
2019-03-12T01:55:30.462Z,3.2
2019-03-12T02:00:15.116Z,3.1
2019-03-12T02:05:07.485Z,3.1
2019-03-12T02:10:10.549Z,3.1
2019-03-12T02:15:08.018Z,3.2
2019-03-12T02:20:05.582Z,3.2
2019-03-12T02:25:23.187Z,3.2
2019-03-12T02:30:03.220Z,3.2
2019-03-12T02:35:04.879Z,3.2
2019-03-12T02:40:02.437Z,3.2
2019-03-12T02:45:02.496Z,3.2
2019-03-12T02:50:02.476Z,3.2
2019-03-12T02:55:05.067Z,3.1
2019-03-12T03:00:05.571Z,3.2
2019-03-12T03:05:15.678Z,3.2
2019-03-12T03:10:10.743Z,3.2
2019-03-12T03:15:08.199Z,3.2
2019-03-12T03:20:23.483Z,3.3
2019-03-12T03:25:32.679Z,3.3
2019-03-12T03:30:07.915Z,3.3
2019-03-12T03:35:07.418Z,3.3
2019-03-12T03:40:13.071Z,3.4
2019-03-12T03:45:02.951Z,3.4
2019-03-12T03:50:18.338Z,3.4
2019-03-12T03:55:15.604Z,3.4
2019-03-12T04:00:02.520Z,3.4
2019-03-12T04:05:20.310Z,3.4
2019-03-12T04:10:02.807Z,3.4
2019-03-12T04:15:05.286Z,3.4
2019-03-12T04:20:07.446Z,3.4
2019-03-12T04:25:07.424Z,3.4
2019-03-12T04:30:15.121Z,3.4
2019-03-12T04:35:02.331Z,3.4
2019-03-12T04:40:07.896Z,3.4
2019-03-12T04:45:02.850Z,3.4
2019-03-12T04:50:07.939Z,3.3
2019-03-12T04:55:03.022Z,3.3
2019-03-12T05:00:05.580Z,3.4
2019-03-12T05:05:03.003Z,3.3
2019-03-12T05:10:15.436Z,3.3
2019-03-12T05:15:05.283Z,3.2
2019-03-12T05:20:25.094Z,3.1
2019-03-12T05:25:05.577Z,3.1
2019-03-12T05:30:02.534Z,3.1
2019-03-12T05:35:05.003Z,3
2019-03-12T05:40:05.047Z,3
2019-03-12T05:45:04.990Z,3
2019-03-12T05:50:02.935Z,3
2019-03-12T05:55:08.020Z,3.1
2019-03-12T06:00:08.073Z,3.1
2019-03-12T06:05:15.547Z,3.1
2019-03-12T06:10:08.093Z,3.2
2019-03-12T06:15:20.701Z,3.3
2019-03-12T06:20:02.716Z,3.3
2019-03-12T06:25:05.263Z,3.4
2019-03-12T06:30:02.580Z,3.4
2019-03-12T06:35:02.532Z,3.4
2019-03-12T06:40:28.249Z,3.4
2019-03-12T06:45:18.373Z,3.4
2019-03-12T06:50:02.318Z,3.4
2019-03-12T06:55:20.053Z,3.5
2019-03-12T07:00:03.133Z,3.5
2019-03-12T07:05:02.346Z,3.5
2019-03-12T07:10:02.922Z,3.6
2019-03-12T07:15:09.949Z,3.7
2019-03-12T07:20:07.646Z,3.8
2019-03-12T07:25:17.831Z,3.9
2019-03-12T07:30:02.825Z,3.9
2019-03-12T07:35:10.420Z,4
2019-03-12T07:40:07.971Z,4.1
2019-03-12T07:45:10.902Z,4.2
2019-03-12T07:50:02.844Z,4.2
2019-03-12T07:55:05.395Z,4.3
2019-03-12T08:00:02.364Z,4.3
2019-03-12T08:05:02.538Z,4.5
2019-03-12T08:10:03.003Z,4.6
2019-03-12T08:15:02.959Z,4.8
2019-03-12T08:20:05.601Z,4.8
2019-03-12T08:25:05.555Z,4.9
2019-03-12T08:30:10.089Z,4.9
2019-03-12T08:35:02.516Z,4.9
2019-03-12T08:40:02.959Z,4.9
2019-03-12T08:45:05.476Z,5
2019-03-12T08:50:05.783Z,5.1
2019-03-12T08:55:18.318Z,3.6
2019-03-12T09:00:05.000Z,5.2
2019-03-12T09:05:17.642Z,5.3
2019-03-12T09:10:03.153Z,5.3
2019-03-12T09:15:10.722Z,5.5
2019-03-12T09:20:20.473Z,5.6
2019-03-12T09:25:07.882Z,5.9
2019-03-12T09:30:05.425Z,6.1
2019-03-12T09:35:07.881Z,6.2
2019-03-12T09:40:07.431Z,6.2
2019-03-12T09:45:04.893Z,6.4
2019-03-12T09:50:05.680Z,6.4
2019-03-12T09:55:18.203Z,6.4
2019-03-12T10:00:16.872Z,0.2
2019-03-12T10:05:02.494Z,6.6
2019-03-12T10:10:35.851Z,6.7
2019-03-12T10:15:07.921Z,6.7
2019-03-12T10:20:23.197Z,6.9
2019-03-12T10:25:20.656Z,6.9
2019-03-12T10:30:05.185Z,6.9
2019-03-12T10:35:05.104Z,6.9
2019-03-12T10:40:05.611Z,7
2019-03-12T10:45:10.582Z,7
2019-03-12T10:50:05.095Z,7.1
2019-03-12T10:55:12.060Z,7.1
2019-03-12T11:05:15.461Z,7.2
2019-03-12T11:10:02.928Z,7.2
2019-03-12T11:15:15.728Z,7.3
2019-03-12T11:20:10.412Z,7.5
2019-03-12T11:25:07.819Z,7.5
2019-03-12T11:30:02.804Z,7.5
2019-03-12T11:35:02.888Z,7.6
2019-03-12T11:40:02.739Z,7.7
2019-03-12T11:45:02.605Z,8
2019-03-12T11:50:28.466Z,8.3
2019-03-12T11:55:07.532Z,8.4
2019-03-12T12:00:19.380Z,8.6
2019-03-12T12:05:07.632Z,8.6
2019-03-12T12:10:05.788Z,8.7
2019-03-12T12:15:03.263Z,8.8
2019-03-12T12:20:05.882Z,8.8
2019-03-12T12:25:03.288Z,8.8
2019-03-12T12:30:09.930Z,8.9
2019-03-12T12:35:10.921Z,9.1
2019-03-12T12:40:17.596Z,9.1
2019-03-12T12:45:04.975Z,9.3
2019-03-12T12:50:05.564Z,9.7
2019-03-12T12:55:03.037Z,9.7
2019-03-12T13:00:05.618Z,10.4
2019-03-12T13:05:05.650Z,10.8
2019-03-12T13:10:10.766Z,11.2
2019-03-12T13:15:05.802Z,11
2019-03-12T13:20:05.612Z,10.6
2019-03-12T13:25:03.127Z,10.5
2019-03-12T13:30:03.239Z,10.5
2019-03-12T13:35:17.642Z,10.1
2019-03-12T13:40:02.371Z,10.1
2019-03-12T13:45:05.026Z,10.1
2019-03-12T13:50:03.198Z,10
2019-03-12T13:55:04.938Z,9.7
2019-03-12T14:00:15.645Z,9.5
2019-03-12T14:05:23.226Z,9.8
2019-03-12T14:10:02.666Z,9.8
2019-03-12T14:15:20.464Z,10
2019-03-12T14:20:22.751Z,9.9
2019-03-12T14:25:02.569Z,9.9
2019-03-12T14:30:05.139Z,9.7
2019-03-12T14:35:07.662Z,9.7
2019-03-12T14:40:03.255Z,9.7
2019-03-12T14:45:15.115Z,9.9
2019-03-12T14:50:05.660Z,9.9
2019-03-12T14:55:35.991Z,10.2
2019-03-12T15:00:15.825Z,10.2
2019-03-12T15:05:05.836Z,10.1
2019-03-12T15:10:02.428Z,10.1
2019-03-12T15:15:02.405Z,10
2019-03-12T15:20:02.463Z,9.7
2019-03-12T15:30:27.956Z,9.3
2019-03-12T15:35:05.437Z,9.2
2019-03-12T15:40:18.138Z,9.1
2019-03-12T15:45:03.055Z,9.1
2019-03-12T15:50:06.041Z,9
2019-03-12T15:55:05.646Z,9.1
2019-03-12T16:00:05.219Z,9
2019-03-12T16:05:02.706Z,9
2019-03-12T16:10:08.321Z,8.9
2019-03-12T16:15:20.382Z,8.9
2019-03-12T16:20:05.003Z,8.8
2019-03-12T16:25:07.613Z,8.7
2019-03-12T16:30:02.597Z,8.7
2019-03-12T16:35:25.501Z,8.6
2019-03-12T16:40:23.304Z,8.5
2019-03-12T16:45:03.138Z,8.5
2019-03-12T16:50:13.261Z,8.3
2019-03-12T16:55:15.792Z,8.2
2019-03-12T17:00:08.321Z,8.2
2019-03-12T17:05:10.453Z,8.1
2019-03-12T17:10:08.013Z,8.1
2019-03-12T17:15:02.972Z,8.1
2019-03-12T17:20:03.056Z,8.1
2019-03-12T17:25:23.331Z,7.8
2019-03-12T17:30:02.343Z,7.8
2019-03-12T17:35:07.460Z,7.7
2019-03-12T17:40:05.433Z,7.7
2019-03-12T17:45:05.496Z,7.6
2019-03-12T17:50:20.292Z,7.6
2019-03-12T17:55:05.132Z,7.6
2019-03-12T18:00:13.335Z,7.6
2019-03-12T18:05:08.200Z,7.6
2019-03-12T18:10:07.730Z,7.5
2019-03-12T18:15:19.468Z,7.5
2019-03-12T18:20:30.952Z,7.5
2019-03-12T18:25:08.063Z,7.6
2019-03-12T18:30:20.738Z,7.6
2019-03-12T18:35:10.644Z,7.6
2019-03-12T18:40:03.168Z,7.6
2019-03-12T18:45:03.206Z,7.6
2019-03-12T18:50:04.909Z,7.6
2019-03-12T18:55:02.354Z,7.5
2019-03-12T19:00:04.916Z,7.6
2019-03-12T19:05:02.383Z,7.6
2019-03-12T19:10:07.891Z,7.5
2019-03-12T19:15:28.160Z,7.5
2019-03-12T19:20:13.428Z,7.5
2019-03-12T19:25:22.572Z,7.5
2019-03-12T19:30:07.758Z,7.5
2019-03-12T19:35:15.245Z,7.4
2019-03-12T19:40:07.986Z,7.4
2019-03-12T19:45:15.640Z,7.4
2019-03-12T19:50:12.759Z,7.3
2019-03-12T19:55:17.795Z,7.2
2019-03-12T20:00:05.333Z,7.2
2019-03-12T20:05:02.807Z,7.2
2019-03-12T20:10:05.815Z,7.2
2019-03-12T20:15:04.915Z,7.1
2019-03-12T20:20:13.141Z,7.1
2019-03-12T20:25:02.965Z,7.1
2019-03-12T20:30:07.992Z,7.1
2019-03-12T20:35:05.468Z,7
2019-03-12T20:40:05.559Z,7
2019-03-12T20:45:08.023Z,6.9
2019-03-12T20:50:03.219Z,6.9
2019-03-12T20:55:06.994Z,6.8
2019-03-12T21:00:04.864Z,6.8
2019-03-12T21:05:02.310Z,6.8
2019-03-12T21:10:05.300Z,6.7
2019-03-12T21:15:02.827Z,6.7
2019-03-12T21:20:28.187Z,6.8
2019-03-12T21:25:05.705Z,6.8
2019-03-12T21:30:11.161Z,6.8
2019-03-12T21:35:02.918Z,6.8
2019-03-12T21:40:25.211Z,6.9
2019-03-12T21:45:07.569Z,6.9
2019-03-12T21:50:02.536Z,6.8
2019-03-12T21:55:05.095Z,6.8
2019-03-12T22:00:10.771Z,6.8
2019-03-12T22:05:03.063Z,6.8
2019-03-12T22:10:02.526Z,6.8
2019-03-12T22:15:07.581Z,6.8
2019-03-12T22:20:02.635Z,6.8
2019-03-12T22:25:10.203Z,6.9
2019-03-12T22:30:03.238Z,6.9
2019-03-12T22:35:04.843Z,6.9
2019-03-12T22:40:23.493Z,6.9
2019-03-12T22:45:03.287Z,6.9
2019-03-12T22:50:15.929Z,6.9
2019-03-12T22:55:04.864Z,6.9
2019-03-12T23:00:05.401Z,7
2019-03-12T23:05:25.663Z,6.9
2019-03-12T23:10:13.267Z,6.9
2019-03-12T23:15:20.920Z,7
2019-03-12T23:20:08.072Z,7
2019-03-12T23:25:05.606Z,7
2019-03-12T23:30:22.865Z,7
2019-03-12T23:40:10.757Z,7.1
2019-03-12T23:45:02.432Z,7.1
2019-03-12T23:50:15.068Z,7.4
2019-03-12T23:55:04.973Z,7.4
